sensor_id;sensor_type;location;lat;lon;timestamp;P1;durP1;ratioP1;P2;durP2;ratioP2
20890;SDS011;10605;52.968;8.844;2023-10-08T00:02:03;3.17;;;1.73;;
20890;SDS011;10605;52.968;8.844;2023-10-08T00:04:31;2.95;;;1.50;;
20890;SDS011;10605;52.968;8.844;2023-10-08T00:07:02;2.47;;;1.95;;
20890;SDS011;10605;52.968;8.844;2023-10-08T00:09:33;3.63;;;1.63;;
20890;SDS011;10605;52.968;8.844;2023-10-08T00:12:43;4.10;;;1.67;;
20890;SDS011;10605;52.968;8.844;2023-10-08T00:15:01;4.13;;;1.77;;
20890;SDS011;10605;52.968;8.844;2023-10-08T00:17:32;3.40;;;1.85;;
20890;SDS011;10605;52.968;8.844;2023-10-08T00:19:58;3.97;;;2.50;;
20890;SDS011;10605;52.968;8.844;2023-10-08T00:22:25;4.25;;;2.72;;
20890;SDS011;10605;52.968;8.844;2023-10-08T00:28:16;2.80;;;2.45;;
20890;SDS011;10605;52.968;8.844;2023-10-08T00:30:42;3.75;;;2.60;;
20890;SDS011;10605;52.968;8.844;2023-10-08T00:33:09;3.42;;;2.92;;
20890;SDS011;10605;52.968;8.844;2023-10-08T00:35:39;6.65;;;2.85;;
20890;SDS011;10605;52.968;8.844;2023-10-08T00:41:38;3.38;;;3.03;;
20890;SDS011;10605;52.968;8.844;2023-10-08T00:44:11;7.60;;;3.10;;
20890;SDS011;10605;52.968;8.844;2023-10-08T00:46:47;4.50;;;2.60;;
20890;SDS011;10605;52.968;8.844;2023-10-08T00:49:23;3.40;;;2.78;;
20890;SDS011;10605;52.968;8.844;2023-10-08T00:54:43;5.05;;;2.40;;
20890;SDS011;10605;52.968;8.844;2023-10-08T00:57:28;3.33;;;2.20;;
20890;SDS011;10605;52.968;8.844;2023-10-08T00:59:55;2.40;;;2.20;;
20890;SDS011;10605;52.968;8.844;2023-10-08T01:02:27;5.57;;;2.00;;
20890;SDS011;10605;52.968;8.844;2023-10-08T01:05:06;1.92;;;1.83;;
20890;SDS011;10605;52.968;8.844;2023-10-08T01:07:35;2.28;;;2.08;;
20890;SDS011;10605;52.968;8.844;2023-10-08T01:10:00;1.80;;;1.70;;
20890;SDS011;10605;52.968;8.844;2023-10-08T01:12:35;3.08;;;2.40;;
20890;SDS011;10605;52.968;8.844;2023-10-08T01:15:18;3.78;;;2.10;;
20890;SDS011;10605;52.968;8.844;2023-10-08T01:18:12;2.50;;;2.30;;
20890;SDS011;10605;52.968;8.844;2023-10-08T01:20:44;8.00;;;2.42;;
20890;SDS011;10605;52.968;8.844;2023-10-08T01:23:13;6.55;;;2.30;;
20890;SDS011;10605;52.968;8.844;2023-10-08T01:25:41;2.60;;;2.40;;
20890;SDS011;10605;52.968;8.844;2023-10-08T01:31:31;3.80;;;1.80;;
20890;SDS011;10605;52.968;8.844;2023-10-08T01:33:57;4.70;;;2.13;;
20890;SDS011;10605;52.968;8.844;2023-10-08T01:36:24;9.20;;;2.25;;
20890;SDS011;10605;52.968;8.844;2023-10-08T01:38:50;6.72;;;2.33;;
20890;SDS011;10605;52.968;8.844;2023-10-08T01:44:43;5.40;;;1.95;;
20890;SDS011;10605;52.968;8.844;2023-10-08T01:47:14;4.90;;;2.80;;
20890;SDS011;10605;52.968;8.844;2023-10-08T01:49:41;4.15;;;2.22;;
20890;SDS011;10605;52.968;8.844;2023-10-08T01:52:09;6.20;;;2.60;;
20890;SDS011;10605;52.968;8.844;2023-10-08T01:54:43;4.80;;;3.20;;
20890;SDS011;10605;52.968;8.844;2023-10-08T01:57:09;4.38;;;3.20;;
20890;SDS011;10605;52.968;8.844;2023-10-08T01:59:37;6.72;;;3.15;;
20890;SDS011;10605;52.968;8.844;2023-10-08T02:02:04;6.00;;;3.28;;
20890;SDS011;10605;52.968;8.844;2023-10-08T02:04:31;6.88;;;3.80;;
20890;SDS011;10605;52.968;8.844;2023-10-08T02:06:58;6.60;;;3.60;;
20890;SDS011;10605;52.968;8.844;2023-10-08T02:09:24;5.75;;;3.35;;
20890;SDS011;10605;52.968;8.844;2023-10-08T02:11:51;6.22;;;3.53;;
20890;SDS011;10605;52.968;8.844;2023-10-08T02:14:18;9.43;;;4.32;;
20890;SDS011;10605;52.968;8.844;2023-10-08T02:16:46;4.00;;;3.33;;
20890;SDS011;10605;52.968;8.844;2023-10-08T02:19:12;5.60;;;3.47;;
20890;SDS011;10605;52.968;8.844;2023-10-08T02:21:38;5.75;;;2.90;;
20890;SDS011;10605;52.968;8.844;2023-10-08T02:24:08;10.43;;;3.67;;
20890;SDS011;10605;52.968;8.844;2023-10-08T02:26:36;7.07;;;3.40;;
20890;SDS011;10605;52.968;8.844;2023-10-08T02:32:18;10.02;;;3.08;;
20890;SDS011;10605;52.968;8.844;2023-10-08T02:34:46;7.85;;;2.80;;
20890;SDS011;10605;52.968;8.844;2023-10-08T02:37:12;2.97;;;2.58;;
20890;SDS011;10605;52.968;8.844;2023-10-08T02:39:38;4.07;;;2.60;;
20890;SDS011;10605;52.968;8.844;2023-10-08T02:45:32;3.47;;;2.55;;
20890;SDS011;10605;52.968;8.844;2023-10-08T02:48:00;7.63;;;2.40;;
20890;SDS011;10605;52.968;8.844;2023-10-08T02:50:25;6.15;;;2.88;;
20890;SDS011;10605;52.968;8.844;2023-10-08T02:52:52;4.38;;;2.70;;
20890;SDS011;10605;52.968;8.844;2023-10-08T02:55:18;7.38;;;3.17;;
20890;SDS011;10605;52.968;8.844;2023-10-08T02:57:53;6.22;;;2.75;;
20890;SDS011;10605;52.968;8.844;2023-10-08T03:00:19;5.50;;;2.28;;
20890;SDS011;10605;52.968;8.844;2023-10-08T03:02:45;9.50;;;2.67;;
20890;SDS011;10605;52.968;8.844;2023-10-08T03:05:11;4.40;;;2.72;;
20890;SDS011;10605;52.968;8.844;2023-10-08T03:07:41;4.88;;;2.88;;
20890;SDS011;10605;52.968;8.844;2023-10-08T03:10:07;5.82;;;2.90;;
20890;SDS011;10605;52.968;8.844;2023-10-08T03:12:43;4.65;;;2.88;;
20890;SDS011;10605;52.968;8.844;2023-10-08T03:15:11;12.05;;;3.33;;
20890;SDS011;10605;52.968;8.844;2023-10-08T03:17:42;5.15;;;3.10;;
20890;SDS011;10605;52.968;8.844;2023-10-08T03:20:20;5.72;;;3.30;;
20890;SDS011;10605;52.968;8.844;2023-10-08T03:23:08;4.03;;;3.28;;
20890;SDS011;10605;52.968;8.844;2023-10-08T03:25:41;4.28;;;3.13;;
20890;SDS011;10605;52.968;8.844;2023-10-08T03:28:09;5.82;;;3.35;;
20890;SDS011;10605;52.968;8.844;2023-10-08T03:34:02;8.32;;;4.13;;
20890;SDS011;10605;52.968;8.844;2023-10-08T03:36:28;5.53;;;3.72;;
20890;SDS011;10605;52.968;8.844;2023-10-08T03:39:00;6.78;;;4.47;;
20890;SDS011;10605;52.968;8.844;2023-10-08T03:41:36;9.43;;;4.93;;
20890;SDS011;10605;52.968;8.844;2023-10-08T03:47:37;7.28;;;5.15;;
20890;SDS011;10605;52.968;8.844;2023-10-08T03:50:06;8.25;;;5.40;;
20890;SDS011;10605;52.968;8.844;2023-10-08T03:52:35;10.50;;;6.20;;
20890;SDS011;10605;52.968;8.844;2023-10-08T03:55:06;9.52;;;6.47;;
20890;SDS011;10605;52.968;8.844;2023-10-08T03:57:43;9.00;;;5.55;;
20890;SDS011;10605;52.968;8.844;2023-10-08T04:00:21;7.65;;;6.55;;
20890;SDS011;10605;52.968;8.844;2023-10-08T04:02:54;8.27;;;6.40;;
20890;SDS011;10605;52.968;8.844;2023-10-08T04:05:21;7.53;;;5.45;;
20890;SDS011;10605;52.968;8.844;2023-10-08T04:07:52;9.15;;;6.53;;
20890;SDS011;10605;52.968;8.844;2023-10-08T04:10:25;9.80;;;7.00;;
20890;SDS011;10605;52.968;8.844;2023-10-08T04:13:14;12.13;;;7.57;;
20890;SDS011;10605;52.968;8.844;2023-10-08T04:15:41;8.75;;;6.82;;
20890;SDS011;10605;52.968;8.844;2023-10-08T04:18:10;11.48;;;7.60;;
20890;SDS011;10605;52.968;8.844;2023-10-08T04:20:38;12.68;;;8.05;;
20890;SDS011;10605;52.968;8.844;2023-10-08T04:23:12;14.38;;;7.68;;
20890;SDS011;10605;52.968;8.844;2023-10-08T04:25:46;11.05;;;7.82;;
20890;SDS011;10605;52.968;8.844;2023-10-08T04:28:19;15.98;;;7.82;;
20890;SDS011;10605;52.968;8.844;2023-10-08T04:30:45;14.05;;;7.95;;
20890;SDS011;10605;52.968;8.844;2023-10-08T04:33:57;14.93;;;8.10;;
20890;SDS011;10605;52.968;8.844;2023-10-08T04:36:04;14.68;;;7.63;;
20890;SDS011;10605;52.968;8.844;2023-10-08T04:38:32;16.05;;;8.10;;
20890;SDS011;10605;52.968;8.844;2023-10-08T04:41:04;11.35;;;7.93;;
20890;SDS011;10605;52.968;8.844;2023-10-08T04:43:34;15.38;;;6.95;;
20890;SDS011;10605;52.968;8.844;2023-10-08T04:46:03;11.68;;;7.65;;
20890;SDS011;10605;52.968;8.844;2023-10-08T04:48:49;13.43;;;8.55;;
20890;SDS011;10605;52.968;8.844;2023-10-08T04:51:15;14.30;;;7.43;;
20890;SDS011;10605;52.968;8.844;2023-10-08T04:53:43;12.80;;;7.32;;
20890;SDS011;10605;52.968;8.844;2023-10-08T04:56:09;22.05;;;7.32;;
20890;SDS011;10605;52.968;8.844;2023-10-08T04:58:42;11.85;;;6.72;;
20890;SDS011;10605;52.968;8.844;2023-10-08T05:01:13;12.35;;;7.05;;
20890;SDS011;10605;52.968;8.844;2023-10-08T05:03:45;8.38;;;7.03;;
20890;SDS011;10605;52.968;8.844;2023-10-08T05:06:21;12.20;;;6.93;;
20890;SDS011;10605;52.968;8.844;2023-10-08T05:08:59;10.13;;;6.07;;
20890;SDS011;10605;52.968;8.844;2023-10-08T05:11:58;11.40;;;6.53;;
20890;SDS011;10605;52.968;8.844;2023-10-08T05:14:35;12.43;;;6.93;;
20890;SDS011;10605;52.968;8.844;2023-10-08T05:17:10;10.60;;;6.30;;
20890;SDS011;10605;52.968;8.844;2023-10-08T05:19:47;11.35;;;6.70;;
20890;SDS011;10605;52.968;8.844;2023-10-08T05:22:33;6.78;;;5.90;;
20890;SDS011;10605;52.968;8.844;2023-10-08T05:24:58;8.77;;;6.18;;
20890;SDS011;10605;52.968;8.844;2023-10-08T05:27:44;12.73;;;6.85;;
20890;SDS011;10605;52.968;8.844;2023-10-08T05:30:16;12.75;;;6.55;;
20890;SDS011;10605;52.968;8.844;2023-10-08T05:33:24;12.75;;;6.07;;
20890;SDS011;10605;52.968;8.844;2023-10-08T05:35:50;14.57;;;6.60;;
20890;SDS011;10605;52.968;8.844;2023-10-08T05:38:27;9.93;;;6.15;;
20890;SDS011;10605;52.968;8.844;2023-10-08T05:40:59;8.88;;;6.00;;
20890;SDS011;10605;52.968;8.844;2023-10-08T05:43:32;9.25;;;5.78;;
20890;SDS011;10605;52.968;8.844;2023-10-08T05:46:03;12.75;;;5.50;;
20890;SDS011;10605;52.968;8.844;2023-10-08T05:51:27;15.65;;;6.65;;
20890;SDS011;10605;52.968;8.844;2023-10-08T05:54:24;10.48;;;5.47;;
20890;SDS011;10605;52.968;8.844;2023-10-08T05:57:07;9.65;;;5.35;;
20890;SDS011;10605;52.968;8.844;2023-10-08T05:59:33;12.45;;;5.57;;
20890;SDS011;10605;52.968;8.844;2023-10-08T06:02:38;15.50;;;5.60;;
20890;SDS011;10605;52.968;8.844;2023-10-08T06:05:11;7.88;;;5.40;;
20890;SDS011;10605;52.968;8.844;2023-10-08T06:12:55;10.10;;;5.47;;
20890;SDS011;10605;52.968;8.844;2023-10-08T06:15:55;13.88;;;5.10;;
20890;SDS011;10605;52.968;8.844;2023-10-08T06:18:25;11.70;;;5.53;;
20890;SDS011;10605;52.968;8.844;2023-10-08T06:20:52;10.30;;;5.25;;
20890;SDS011;10605;52.968;8.844;2023-10-08T06:23:26;9.10;;;5.85;;
20890;SDS011;10605;52.968;8.844;2023-10-08T06:25:54;9.73;;;5.32;;
20890;SDS011;10605;52.968;8.844;2023-10-08T06:28:24;9.75;;;5.50;;
20890;SDS011;10605;52.968;8.844;2023-10-08T06:34:13;7.82;;;5.00;;
20890;SDS011;10605;52.968;8.844;2023-10-08T06:36:39;10.13;;;5.43;;
20890;SDS011;10605;52.968;8.844;2023-10-08T06:39:04;6.80;;;5.05;;
20890;SDS011;10605;52.968;8.844;2023-10-08T06:41:36;8.80;;;5.15;;
20890;SDS011;10605;52.968;8.844;2023-10-08T06:44:02;12.65;;;4.85;;
20890;SDS011;10605;52.968;8.844;2023-10-08T06:46:28;7.65;;;5.00;;
20890;SDS011;10605;52.968;8.844;2023-10-08T06:48:58;9.73;;;5.68;;
20890;SDS011;10605;52.968;8.844;2023-10-08T06:51:24;9.98;;;7.15;;
20890;SDS011;10605;52.968;8.844;2023-10-08T06:53:51;16.50;;;7.93;;
20890;SDS011;10605;52.968;8.844;2023-10-08T06:56:17;7.72;;;5.03;;
20890;SDS011;10605;52.968;8.844;2023-10-08T06:58:45;8.48;;;7.53;;
20890;SDS011;10605;52.968;8.844;2023-10-08T07:01:16;9.23;;;8.30;;
20890;SDS011;10605;52.968;8.844;2023-10-08T07:04:03;7.57;;;5.28;;
20890;SDS011;10605;52.968;8.844;2023-10-08T07:06:31;5.22;;;4.30;;
20890;SDS011;10605;52.968;8.844;2023-10-08T07:08:59;7.22;;;3.88;;
20890;SDS011;10605;52.968;8.844;2023-10-08T07:11:30;11.88;;;3.75;;
20890;SDS011;10605;52.968;8.844;2023-10-08T07:14:00;4.47;;;3.50;;
20890;SDS011;10605;52.968;8.844;2023-10-08T07:16:27;8.10;;;3.60;;
20890;SDS011;10605;52.968;8.844;2023-10-08T07:18:53;6.70;;;3.83;;
20890;SDS011;10605;52.968;8.844;2023-10-08T07:21:27;4.70;;;3.40;;
20890;SDS011;10605;52.968;8.844;2023-10-08T07:24:09;6.13;;;3.42;;
20890;SDS011;10605;52.968;8.844;2023-10-08T07:26:47;5.03;;;3.38;;
20890;SDS011;10605;52.968;8.844;2023-10-08T07:29:14;6.90;;;3.20;;
20890;SDS011;10605;52.968;8.844;2023-10-08T07:31:47;3.92;;;2.55;;
20890;SDS011;10605;52.968;8.844;2023-10-08T07:34:17;3.03;;;2.42;;
20890;SDS011;10605;52.968;8.844;2023-10-08T07:36:51;5.93;;;3.22;;
20890;SDS011;10605;52.968;8.844;2023-10-08T07:39:19;4.63;;;3.33;;
20890;SDS011;10605;52.968;8.844;2023-10-08T07:42:00;4.43;;;2.28;;
20890;SDS011;10605;52.968;8.844;2023-10-08T07:44:33;4.70;;;2.22;;
20890;SDS011;10605;52.968;8.844;2023-10-08T07:47:04;3.58;;;2.47;;
20890;SDS011;10605;52.968;8.844;2023-10-08T07:49:39;6.85;;;2.60;;
20890;SDS011;10605;52.968;8.844;2023-10-08T07:52:08;8.98;;;2.90;;
20890;SDS011;10605;52.968;8.844;2023-10-08T07:54:43;7.00;;;2.42;;
20890;SDS011;10605;52.968;8.844;2023-10-08T07:57:15;4.80;;;1.70;;
20890;SDS011;10605;52.968;8.844;2023-10-08T07:59:53;6.75;;;2.00;;
20890;SDS011;10605;52.968;8.844;2023-10-08T08:02:38;5.00;;;2.25;;
20890;SDS011;10605;52.968;8.844;2023-10-08T08:05:07;3.67;;;1.95;;
20890;SDS011;10605;52.968;8.844;2023-10-08T08:08:16;8.68;;;1.75;;
20890;SDS011;10605;52.968;8.844;2023-10-08T08:10:30;4.63;;;2.17;;
20890;SDS011;10605;52.968;8.844;2023-10-08T08:13:02;4.07;;;1.92;;
20890;SDS011;10605;52.968;8.844;2023-10-08T08:15:31;3.20;;;2.00;;
20890;SDS011;10605;52.968;8.844;2023-10-08T08:18:06;5.40;;;2.00;;
20890;SDS011;10605;52.968;8.844;2023-10-08T08:20:46;6.88;;;1.67;;
20890;SDS011;10605;52.968;8.844;2023-10-08T08:23:12;3.97;;;1.45;;
20890;SDS011;10605;52.968;8.844;2023-10-08T08:25:39;12.45;;;2.15;;
20890;SDS011;10605;52.968;8.844;2023-10-08T08:28:32;4.88;;;2.38;;
20890;SDS011;10605;52.968;8.844;2023-10-08T08:34:26;5.97;;;1.80;;
20890;SDS011;10605;52.968;8.844;2023-10-08T08:36:53;4.47;;;1.85;;
20890;SDS011;10605;52.968;8.844;2023-10-08T08:39:24;7.43;;;2.28;;
20890;SDS011;10605;52.968;8.844;2023-10-08T08:42:04;9.25;;;2.08;;
20890;SDS011;10605;52.968;8.844;2023-10-08T08:44:33;6.63;;;1.63;;
20890;SDS011;10605;52.968;8.844;2023-10-08T08:47:12;6.60;;;1.95;;
20890;SDS011;10605;52.968;8.844;2023-10-08T08:49:45;6.88;;;1.92;;
20890;SDS011;10605;52.968;8.844;2023-10-08T08:52:13;5.57;;;1.75;;
20890;SDS011;10605;52.968;8.844;2023-10-08T08:54:39;9.85;;;1.70;;
20890;SDS011;10605;52.968;8.844;2023-10-08T08:57:07;5.75;;;1.70;;
20890;SDS011;10605;52.968;8.844;2023-10-08T08:59:40;3.33;;;1.70;;
20890;SDS011;10605;52.968;8.844;2023-10-08T09:02:13;4.35;;;1.45;;
20890;SDS011;10605;52.968;8.844;2023-10-08T09:04:40;7.03;;;1.63;;
20890;SDS011;10605;52.968;8.844;2023-10-08T09:07:07;8.75;;;1.88;;
20890;SDS011;10605;52.968;8.844;2023-10-08T09:09:33;5.07;;;1.45;;
20890;SDS011;10605;52.968;8.844;2023-10-08T09:12:04;6.88;;;1.73;;
20890;SDS011;10605;52.968;8.844;2023-10-08T09:14:35;7.95;;;1.75;;
20890;SDS011;10605;52.968;8.844;2023-10-08T09:17:01;4.63;;;1.63;;
20890;SDS011;10605;52.968;8.844;2023-10-08T09:19:39;11.60;;;1.80;;
20890;SDS011;10605;52.968;8.844;2023-10-08T09:22:13;7.43;;;1.65;;
20890;SDS011;10605;52.968;8.844;2023-10-08T09:24:47;5.15;;;1.58;;
20890;SDS011;10605;52.968;8.844;2023-10-08T09:27:17;9.05;;;1.55;;
20890;SDS011;10605;52.968;8.844;2023-10-08T09:33:34;8.18;;;1.80;;
20890;SDS011;10605;52.968;8.844;2023-10-08T09:36:22;8.60;;;1.40;;
20890;SDS011;10605;52.968;8.844;2023-10-08T09:39:00;4.60;;;1.60;;
20890;SDS011;10605;52.968;8.844;2023-10-08T09:41:29;3.40;;;1.45;;
20890;SDS011;10605;52.968;8.844;2023-10-08T09:43:58;4.90;;;1.85;;
20890;SDS011;10605;52.968;8.844;2023-10-08T09:46:33;3.55;;;1.35;;
20890;SDS011;10605;52.968;8.844;2023-10-08T09:49:03;3.92;;;1.48;;
20890;SDS011;10605;52.968;8.844;2023-10-08T09:51:33;5.88;;;1.80;;
20890;SDS011;10605;52.968;8.844;2023-10-08T09:54:12;5.03;;;1.45;;
20890;SDS011;10605;52.968;8.844;2023-10-08T09:56:45;10.32;;;1.40;;
20890;SDS011;10605;52.968;8.844;2023-10-08T09:59:14;3.58;;;1.35;;
20890;SDS011;10605;52.968;8.844;2023-10-08T10:01:41;4.57;;;1.20;;
20890;SDS011;10605;52.968;8.844;2023-10-08T10:04:09;6.30;;;1.45;;
20890;SDS011;10605;52.968;8.844;2023-10-08T10:10:04;1.92;;;1.00;;
20890;SDS011;10605;52.968;8.844;2023-10-08T10:12:51;4.22;;;1.10;;
20890;SDS011;10605;52.968;8.844;2023-10-08T10:15:19;5.93;;;1.48;;
20890;SDS011;10605;52.968;8.844;2023-10-08T10:17:47;4.25;;;1.15;;
20890;SDS011;10605;52.968;8.844;2023-10-08T10:23:49;5.40;;;1.67;;
20890;SDS011;10605;52.968;8.844;2023-10-08T10:26:25;2.28;;;1.10;;
20890;SDS011;10605;52.968;8.844;2023-10-08T10:31:49;6.95;;;1.55;;
20890;SDS011;10605;52.968;8.844;2023-10-08T10:37:36;3.35;;;0.93;;
20890;SDS011;10605;52.968;8.844;2023-10-08T10:40:21;3.67;;;1.00;;
20890;SDS011;10605;52.968;8.844;2023-10-08T10:43:06;5.55;;;1.33;;
20890;SDS011;10605;52.968;8.844;2023-10-08T10:45:34;7.18;;;1.52;;
20890;SDS011;10605;52.968;8.844;2023-10-08T10:48:22;10.35;;;1.48;;
20890;SDS011;10605;52.968;8.844;2023-10-08T10:50:48;4.72;;;1.10;;
20890;SDS011;10605;52.968;8.844;2023-10-08T10:53:34;6.72;;;1.20;;
20890;SDS011;10605;52.968;8.844;2023-10-08T10:56:13;3.30;;;1.30;;
20890;SDS011;10605;52.968;8.844;2023-10-08T10:58:57;8.77;;;1.27;;
20890;SDS011;10605;52.968;8.844;2023-10-08T11:01:28;4.25;;;1.25;;
20890;SDS011;10605;52.968;8.844;2023-10-08T11:04:09;4.38;;;1.50;;
20890;SDS011;10605;52.968;8.844;2023-10-08T11:06:41;7.20;;;1.13;;
20890;SDS011;10605;52.968;8.844;2023-10-08T11:09:09;5.88;;;1.20;;
20890;SDS011;10605;52.968;8.844;2023-10-08T11:15:19;4.32;;;1.20;;
20890;SDS011;10605;52.968;8.844;2023-10-08T11:17:49;8.43;;;2.05;;
20890;SDS011;10605;52.968;8.844;2023-10-08T11:20:27;3.00;;;1.08;;
20890;SDS011;10605;52.968;8.844;2023-10-08T11:22:53;7.38;;;1.25;;
20890;SDS011;10605;52.968;8.844;2023-10-08T11:25:23;5.55;;;1.27;;
20890;SDS011;10605;52.968;8.844;2023-10-08T11:27:55;4.70;;;1.10;;
20890;SDS011;10605;52.968;8.844;2023-10-08T11:30:34;5.65;;;1.13;;
20890;SDS011;10605;52.968;8.844;2023-10-08T11:33:01;6.03;;;1.95;;
20890;SDS011;10605;52.968;8.844;2023-10-08T11:35:27;6.45;;;1.00;;
20890;SDS011;10605;52.968;8.844;2023-10-08T11:37:57;3.45;;;1.17;;
20890;SDS011;10605;52.968;8.844;2023-10-08T11:40:26;7.53;;;1.45;;
20890;SDS011;10605;52.968;8.844;2023-10-08T11:43:11;5.82;;;1.50;;
20890;SDS011;10605;52.968;8.844;2023-10-08T11:45:41;4.43;;;1.45;;
20890;SDS011;10605;52.968;8.844;2023-10-08T11:48:13;3.08;;;1.10;;
20890;SDS011;10605;52.968;8.844;2023-10-08T11:50:54;5.13;;;1.45;;
20890;SDS011;10605;52.968;8.844;2023-10-08T11:53:22;4.78;;;1.50;;
20890;SDS011;10605;52.968;8.844;2023-10-08T11:55:49;6.82;;;1.52;;
20890;SDS011;10605;52.968;8.844;2023-10-08T11:58:21;7.47;;;1.40;;
20890;SDS011;10605;52.968;8.844;2023-10-08T12:01:00;8.65;;;1.52;;
20890;SDS011;10605;52.968;8.844;2023-10-08T12:03:28;4.82;;;1.30;;
20890;SDS011;10605;52.968;8.844;2023-10-08T12:05:54;7.35;;;1.50;;
20890;SDS011;10605;52.968;8.844;2023-10-08T12:08:24;6.45;;;1.30;;
20890;SDS011;10605;52.968;8.844;2023-10-08T12:10:52;5.38;;;1.67;;
20890;SDS011;10605;52.968;8.844;2023-10-08T12:13:23;5.35;;;1.30;;
20890;SDS011;10605;52.968;8.844;2023-10-08T12:15:54;8.27;;;1.40;;
20890;SDS011;10605;52.968;8.844;2023-10-08T12:18:40;3.20;;;1.13;;
20890;SDS011;10605;52.968;8.844;2023-10-08T12:21:09;6.45;;;1.38;;
20890;SDS011;10605;52.968;8.844;2023-10-08T12:23:40;7.63;;;1.42;;
20890;SDS011;10605;52.968;8.844;2023-10-08T12:26:14;3.25;;;1.30;;
20890;SDS011;10605;52.968;8.844;2023-10-08T12:28:46;5.63;;;1.55;;
20890;SDS011;10605;52.968;8.844;2023-10-08T12:31:19;8.60;;;1.40;;
20890;SDS011;10605;52.968;8.844;2023-10-08T12:33:47;9.02;;;1.27;;
20890;SDS011;10605;52.968;8.844;2023-10-08T12:36:14;4.53;;;1.50;;
20890;SDS011;10605;52.968;8.844;2023-10-08T12:38:44;4.35;;;1.42;;
20890;SDS011;10605;52.968;8.844;2023-10-08T12:41:15;3.45;;;1.27;;
20890;SDS011;10605;52.968;8.844;2023-10-08T12:43:45;4.47;;;1.52;;
20890;SDS011;10605;52.968;8.844;2023-10-08T12:46:13;8.07;;;1.70;;
20890;SDS011;10605;52.968;8.844;2023-10-08T12:48:49;5.78;;;1.50;;
20890;SDS011;10605;52.968;8.844;2023-10-08T12:51:20;3.75;;;1.48;;
20890;SDS011;10605;52.968;8.844;2023-10-08T12:53:50;5.88;;;1.40;;
20890;SDS011;10605;52.968;8.844;2023-10-08T12:56:23;7.18;;;1.92;;
20890;SDS011;10605;52.968;8.844;2023-10-08T12:58:56;3.38;;;1.58;;
20890;SDS011;10605;52.968;8.844;2023-10-08T13:01:23;5.70;;;1.45;;
20890;SDS011;10605;52.968;8.844;2023-10-08T13:03:48;10.48;;;1.48;;
20890;SDS011;10605;52.968;8.844;2023-10-08T13:06:18;4.97;;;1.27;;
20890;SDS011;10605;52.968;8.844;2023-10-08T13:12:34;2.47;;;1.15;;
20890;SDS011;10605;52.968;8.844;2023-10-08T13:15:00;5.03;;;1.50;;
20890;SDS011;10605;52.968;8.844;2023-10-08T13:17:31;9.23;;;1.50;;
20890;SDS011;10605;52.968;8.844;2023-10-08T13:19:57;6.80;;;1.35;;
20890;SDS011;10605;52.968;8.844;2023-10-08T13:22:22;9.73;;;1.50;;
20890;SDS011;10605;52.968;8.844;2023-10-08T13:24:49;5.03;;;1.63;;
20890;SDS011;10605;52.968;8.844;2023-10-08T13:27:15;9.98;;;1.50;;
20890;SDS011;10605;52.968;8.844;2023-10-08T13:29:41;4.53;;;1.35;;
20890;SDS011;10605;52.968;8.844;2023-10-08T13:32:08;3.33;;;1.65;;
20890;SDS011;10605;52.968;8.844;2023-10-08T13:34:42;3.08;;;1.20;;
20890;SDS011;10605;52.968;8.844;2023-10-08T13:37:15;7.70;;;2.25;;
20890;SDS011;10605;52.968;8.844;2023-10-08T13:39:42;5.10;;;1.30;;
20890;SDS011;10605;52.968;8.844;2023-10-08T13:42:08;3.17;;;1.40;;
20890;SDS011;10605;52.968;8.844;2023-10-08T13:44:34;5.35;;;1.45;;
20890;SDS011;10605;52.968;8.844;2023-10-08T13:47:00;2.83;;;1.48;;
20890;SDS011;10605;52.968;8.844;2023-10-08T13:49:30;4.03;;;1.30;;
20890;SDS011;10605;52.968;8.844;2023-10-08T13:51:57;6.25;;;1.73;;
20890;SDS011;10605;52.968;8.844;2023-10-08T13:54:23;4.45;;;1.70;;
20890;SDS011;10605;52.968;8.844;2023-10-08T13:56:55;4.70;;;1.52;;
20890;SDS011;10605;52.968;8.844;2023-10-08T13:59:21;4.22;;;1.17;;
20890;SDS011;10605;52.968;8.844;2023-10-08T14:01:49;4.07;;;1.38;;
20890;SDS011;10605;52.968;8.844;2023-10-08T14:04:19;6.68;;;1.42;;
20890;SDS011;10605;52.968;8.844;2023-10-08T14:06:51;7.32;;;1.48;;
20890;SDS011;10605;52.968;8.844;2023-10-08T14:09:17;4.18;;;1.10;;
20890;SDS011;10605;52.968;8.844;2023-10-08T14:11:56;5.43;;;1.65;;
20890;SDS011;10605;52.968;8.844;2023-10-08T14:14:22;6.63;;;2.13;;
20890;SDS011;10605;52.968;8.844;2023-10-08T14:16:54;5.20;;;1.50;;
20890;SDS011;10605;52.968;8.844;2023-10-08T14:19:25;4.97;;;1.77;;
20890;SDS011;10605;52.968;8.844;2023-10-08T14:22:04;6.18;;;1.63;;
20890;SDS011;10605;52.968;8.844;2023-10-08T14:24:34;7.47;;;1.40;;
20890;SDS011;10605;52.968;8.844;2023-10-08T14:27:03;6.18;;;2.10;;
20890;SDS011;10605;52.968;8.844;2023-10-08T14:29:35;8.40;;;1.75;;
20890;SDS011;10605;52.968;8.844;2023-10-08T14:32:12;4.75;;;1.50;;
20890;SDS011;10605;52.968;8.844;2023-10-08T14:34:38;6.45;;;1.73;;
20890;SDS011;10605;52.968;8.844;2023-10-08T14:37:22;5.38;;;1.48;;
20890;SDS011;10605;52.968;8.844;2023-10-08T14:40:06;5.63;;;1.73;;
20890;SDS011;10605;52.968;8.844;2023-10-08T14:43:03;6.30;;;1.58;;
20890;SDS011;10605;52.968;8.844;2023-10-08T14:45:30;7.35;;;1.63;;
20890;SDS011;10605;52.968;8.844;2023-10-08T14:47:58;7.22;;;1.77;;
20890;SDS011;10605;52.968;8.844;2023-10-08T14:50:25;4.28;;;1.70;;
20890;SDS011;10605;52.968;8.844;2023-10-08T14:52:57;4.90;;;1.88;;
20890;SDS011;10605;52.968;8.844;2023-10-08T14:55:29;5.72;;;1.35;;
20890;SDS011;10605;52.968;8.844;2023-10-08T14:57:56;10.82;;;1.55;;
20890;SDS011;10605;52.968;8.844;2023-10-08T15:00:22;4.30;;;1.50;;
20890;SDS011;10605;52.968;8.844;2023-10-08T15:02:54;4.78;;;1.50;;
20890;SDS011;10605;52.968;8.844;2023-10-08T15:05:23;5.65;;;1.60;;
20890;SDS011;10605;52.968;8.844;2023-10-08T15:07:49;5.68;;;1.85;;
20890;SDS011;10605;52.968;8.844;2023-10-08T15:10:16;6.88;;;1.90;;
20890;SDS011;10605;52.968;8.844;2023-10-08T15:12:42;3.38;;;1.20;;
20890;SDS011;10605;52.968;8.844;2023-10-08T15:15:08;10.60;;;2.42;;
20890;SDS011;10605;52.968;8.844;2023-10-08T15:17:44;5.07;;;1.73;;
20890;SDS011;10605;52.968;8.844;2023-10-08T15:20:12;9.25;;;1.67;;
20890;SDS011;10605;52.968;8.844;2023-10-08T15:22:41;3.00;;;1.55;;
20890;SDS011;10605;52.968;8.844;2023-10-08T15:25:08;4.65;;;1.70;;
20890;SDS011;10605;52.968;8.844;2023-10-08T15:27:38;2.63;;;1.60;;
20890;SDS011;10605;52.968;8.844;2023-10-08T15:30:10;5.13;;;1.70;;
20890;SDS011;10605;52.968;8.844;2023-10-08T15:32:40;7.10;;;1.70;;
20890;SDS011;10605;52.968;8.844;2023-10-08T15:35:10;4.65;;;1.60;;
20890;SDS011;10605;52.968;8.844;2023-10-08T15:37:37;3.53;;;1.60;;
20890;SDS011;10605;52.968;8.844;2023-10-08T15:40:04;3.70;;;1.42;;
20890;SDS011;10605;52.968;8.844;2023-10-08T15:42:33;4.03;;;1.38;;
20890;SDS011;10605;52.968;8.844;2023-10-08T15:45:01;7.60;;;1.63;;
20890;SDS011;10605;52.968;8.844;2023-10-08T15:47:29;6.20;;;1.45;;
20890;SDS011;10605;52.968;8.844;2023-10-08T15:49:56;6.43;;;1.70;;
20890;SDS011;10605;52.968;8.844;2023-10-08T15:52:25;6.00;;;1.20;;
20890;SDS011;10605;52.968;8.844;2023-10-08T15:54:51;6.80;;;1.77;;
20890;SDS011;10605;52.968;8.844;2023-10-08T15:57:17;3.88;;;1.58;;
20890;SDS011;10605;52.968;8.844;2023-10-08T15:59:43;10.13;;;2.03;;
20890;SDS011;10605;52.968;8.844;2023-10-08T16:02:08;2.75;;;1.52;;
20890;SDS011;10605;52.968;8.844;2023-10-08T16:04:34;11.05;;;1.48;;
20890;SDS011;10605;52.968;8.844;2023-10-08T16:07:00;6.18;;;2.03;;
20890;SDS011;10605;52.968;8.844;2023-10-08T16:09:26;4.03;;;1.45;;
20890;SDS011;10605;52.968;8.844;2023-10-08T16:11:53;4.72;;;1.60;;
20890;SDS011;10605;52.968;8.844;2023-10-08T16:14:19;3.00;;;1.67;;
20890;SDS011;10605;52.968;8.844;2023-10-08T16:16:46;4.25;;;1.55;;
20890;SDS011;10605;52.968;8.844;2023-10-08T16:19:14;5.47;;;1.75;;
20890;SDS011;10605;52.968;8.844;2023-10-08T16:21:43;3.83;;;1.40;;